Time;durP1;ratioP1;P1;durP2;ratioP2;P2;SDS_P1;SDS_P2;PMS_P1;PMS_P2;Temp;Humidity;BMP_temperature;BMP_pressure;BME280_temperature;BME280_humidity;BME280_pressure;Samples;Min_cycle;Max_cycle;Signal;HPM_P1;HPM_P2
2021/12/02 00:00:04;;;;;;;2.50;1.27;;;;;;;15.27;65.87;95874.16;5013403;28;20045;-29
2021/12/02 00:02:30;;;;;;;4.70;1.48;;;;;;;15.28;65.50;95864.72;5013343;28;20431;-29
2021/12/02 00:04:55;;;;;;;2.53;0.93;;;;;;;15.31;65.13;95880.19;5012407;28;20026;-29
2021/12/02 00:07:21;;;;;;;3.63;0.60;;;;;;;15.31;65.12;95874.72;5013469;28;20075;-29
2021/12/02 00:09:47;;;;;;;1.58;0.70;;;;;;;15.29;64.68;95873.69;5013249;28;20449;-29
2021/12/02 00:12:12;;;;;;;2.35;0.70;;;;;;;15.19;65.53;95878.47;5013417;28;20057;-29
2021/12/02 00:14:44;;;;;;;2.45;0.50;;;;;;;15.13;65.20;95866.69;5013390;28;20033;-29
2021/12/02 00:17:15;;;;;;;3.08;0.90;;;;;;;15.08;65.64;95875.56;5013151;28;20026;-29
2021/12/02 00:22:27;;;;;;;2.50;0.63;;;;;;;15.16;65.34;95868.50;5013261;28;20025;-29
2021/12/02 00:24:59;;;;;;;3.33;0.88;;;;;;;15.22;64.76;95874.78;5016328;28;20062;-29
2021/12/02 00:27:27;;;;;;;2.47;0.70;;;;;;;15.14;65.59;95843.63;5016999;28;20400;-29
2021/12/02 00:29:55;;;;;;;1.90;0.50;;;;;;;15.22;65.34;95850.22;5017041;28;20017;-29
2021/12/02 00:32:24;;;;;;;1.42;0.55;;;;;;;15.17;66.04;95836.47;5016895;28;20342;-29
2021/12/02 00:34:50;;;;;;;0.90;0.50;;;;;;;15.18;65.37;95827.81;5017130;28;20030;-29
2021/12/02 00:37:16;;;;;;;2.50;0.63;;;;;;;15.18;65.27;95838.72;5016966;28;20057;-29
2021/12/02 00:39:41;;;;;;;2.65;0.60;;;;;;;15.21;65.27;95826.84;5016806;28;20026;-29
2021/12/02 00:42:09;;;;;;;1.38;0.45;;;;;;;15.16;65.17;95822.06;5016829;28;20021;-29
2021/12/02 00:44:37;;;;;;;3.42;0.47;;;;;;;15.06;65.29;95828.84;5016385;28;20029;-29
2021/12/02 00:47:03;;;;;;;2.70;0.60;;;;;;;15.10;65.33;95813.00;5016571;28;20033;-29
2021/12/02 00:49:29;;;;;;;3.42;1.13;;;;;;;15.08;65.54;95821.66;5016561;28;20420;-29
2021/12/02 00:51:57;;;;;;;3.33;0.90;;;;;;;15.06;65.09;95832.31;5016400;28;20076;-29
2021/12/02 00:54:25;;;;;;;1.73;0.40;;;;;;;15.15;65.53;95830.72;5016894;28;20030;-29
2021/12/02 00:56:52;;;;;;;2.00;0.43;;;;;;;15.09;65.75;95834.09;5016368;28;20066;-29
2021/12/02 00:59:19;;;;;;;4.18;0.93;;;;;;;15.11;65.42;95814.50;5016270;28;20480;-29
2021/12/02 01:01:48;;;;;;;1.73;0.60;;;;;;;15.18;65.38;95816.88;5016531;28;20026;-29
2021/12/02 01:04:19;;;;;;;2.92;0.60;;;;;;;15.14;65.22;95804.63;5016101;28;20018;-29
2021/12/02 01:06:45;;;;;;;2.13;0.68;;;;;;;15.14;65.12;95816.31;5016355;28;20026;-29
2021/12/02 01:09:12;;;;;;;3.83;0.60;;;;;;;15.20;64.83;95800.03;5016404;28;20117;-29
2021/12/02 01:11:38;;;;;;;1.55;0.65;;;;;;;15.20;64.75;95798.06;5016033;28;20100;-29
2021/12/02 01:14:04;;;;;;;2.63;0.60;;;;;;;15.11;64.90;95789.94;5015995;28;20097;-29
2021/12/02 01:16:30;;;;;;;1.42;0.50;;;;;;;15.19;64.47;95791.06;5016064;28;20021;-29
2021/12/02 01:18:56;;;;;;;3.33;0.73;;;;;;;15.14;64.97;95794.47;5016367;28;20372;-29
2021/12/02 01:21:24;;;;;;;2.30;0.80;;;;;;;15.14;64.83;95789.00;5016149;28;20404;-29
2021/12/02 01:23:59;;;;;;;3.92;0.60;;;;;;;15.16;64.59;95797.47;5015913;28;20108;-29
2021/12/02 01:26:27;;;;;;;3.55;0.73;;;;;;;15.15;64.80;95795.97;5015685;28;20033;-29
2021/12/02 01:28:52;;;;;;;3.42;0.70;;;;;;;15.12;64.61;95777.03;5015809;28;20400;-29
2021/12/02 01:31:18;;;;;;;2.33;0.50;;;;;;;15.14;64.96;95785.50;5015627;28;20022;-29
2021/12/02 01:33:45;;;;;;;2.72;0.98;;;;;;;15.21;64.68;95794.06;5015665;28;20022;-30
2021/12/02 01:36:12;;;;;;;2.08;0.50;;;;;;;15.16;64.78;95794.75;5015418;28;20064;-30
2021/12/02 01:38:38;;;;;;;2.53;0.52;;;;;;;15.23;65.09;95785.41;5015599;28;20037;-29
2021/12/02 01:41:04;;;;;;;2.60;0.85;;;;;;;15.17;64.76;95793.53;5015462;28;20026;-29
2021/12/02 01:43:51;;;;;;;2.28;0.50;;;;;;;15.14;64.84;95789.00;5015733;28;20025;-29
2021/12/02 01:46:23;;;;;;;4.70;0.93;;;;;;;15.14;64.81;95777.31;5015481;28;20040;-29
2021/12/02 01:48:58;;;;;;;3.70;0.60;;;;;;;15.13;64.58;95770.34;5015453;28;20026;-29
2021/12/02 01:51:27;;;;;;;2.83;0.75;;;;;;;15.10;64.66;95769.31;5015267;28;20038;-29
2021/12/02 01:54:02;;;;;;;3.65;0.60;;;;;;;15.12;64.79;95757.91;5015023;28;20021;-29
2021/12/02 01:56:31;;;;;;;3.60;0.70;;;;;;;15.09;64.64;95760.34;5019724;28;20032;-29
2021/12/02 01:59:12;;;;;;;1.85;0.60;;;;;;;15.06;64.68;95760.56;5032948;28;20060;-29
2021/12/02 02:01:41;;;;;;;3.10;0.80;;;;;;;15.17;64.37;95760.00;5020523;28;20068;-29
2021/12/02 02:04:07;;;;;;;6.68;1.23;;;;;;;15.11;64.68;95754.44;5013307;28;20076;-29
2021/12/02 02:06:58;;;;;;;3.28;0.73;;;;;;;15.12;64.58;95739.56;5012973;28;20088;-29
2021/12/02 02:09:25;;;;;;;3.90;1.20;;;;;;;15.09;64.42;95735.03;5013107;28;20107;-29
2021/12/02 02:11:51;;;;;;;2.35;1.17;;;;;;;15.14;64.45;95728.16;5012974;28;20033;-29
2021/12/02 02:14:17;;;;;;;4.85;1.67;;;;;;;15.14;64.83;95733.63;5029136;28;20022;-29
2021/12/02 02:16:43;;;;;;;4.53;1.60;;;;;;;15.23;64.21;95719.84;5032915;28;20032;-29
2021/12/02 02:19:12;;;;;;;4.78;1.98;;;;;;;15.16;64.58;95714.78;5032515;28;20025;-29
2021/12/02 02:21:37;;;;;;;4.18;1.48;;;;;;;15.13;65.12;95721.94;5032784;28;20025;-29
2021/12/02 02:24:05;;;;;;;3.80;1.40;;;;;;;15.05;64.55;95727.03;5030770;28;20037;-29
2021/12/02 02:26:35;;;;;;;5.53;1.50;;;;;;;15.16;64.54;95712.81;5032644;28;20108;-29
2021/12/02 02:29:02;;;;;;;4.60;1.30;;;;;;;15.14;64.25;95711.78;5029317;28;20041;-29
2021/12/02 02:31:29;;;;;;;2.95;1.42;;;;;;;15.15;64.49;95708.56;5022685;28;20052;-29
2021/12/02 02:33:56;;;;;;;4.95;1.40;;;;;;;15.10;64.74;95701.78;5032426;28;20029;-29
2021/12/02 02:36:26;;;;;;;3.47;1.27;;;;;;;15.12;64.87;95695.84;5014834;28;20026;-29
2021/12/02 02:39:02;;;;;;;4.93;1.63;;;;;;;15.15;64.49;95700.38;5012598;28;20036;-29
2021/12/02 02:41:39;;;;;;;5.18;1.38;;;;;;;15.08;64.44;95693.31;5012540;28;20025;-29
2021/12/02 02:44:06;;;;;;;2.10;1.30;;;;;;;15.15;64.25;95694.91;5012316;28;20033;-29
2021/12/02 02:46:34;;;;;;;4.13;1.40;;;;;;;15.06;64.74;95684.09;5012747;28;20025;-29
2021/12/02 02:49:01;;;;;;;4.32;1.52;;;;;;;15.11;64.41;95675.22;5030826;28;20034;-29
2021/12/02 02:51:30;;;;;;;3.13;1.08;;;;;;;15.09;65.03;95677.69;5032070;28;20102;-29
2021/12/02 02:54:02;;;;;;;2.55;1.15;;;;;;;15.17;64.31;95675.31;5032141;28;20029;-29
2021/12/02 02:56:30;;;;;;;2.60;0.95;;;;;;;15.14;64.41;95684.47;5031901;28;20499;-29
2021/12/02 03:04:37;;;;;;;4.03;1.00;;;;;;;15.03;65.45;95676.84;5031741;28;20029;-29
2021/12/02 03:07:10;;;;;;;3.33;0.95;;;;;;;15.15;64.16;95664.88;5031749;28;20025;-29
2021/12/02 03:12:14;;;;;;;3.97;1.00;;;;;;;14.97;64.66;95665.09;5031642;28;20029;-29
2021/12/02 03:17:07;;;;;;;3.15;1.00;;;;;;;15.13;64.53;95655.63;5031733;28;20033;-29
2021/12/02 03:19:34;;;;;;;3.20;1.08;;;;;;;15.13;64.18;95661.84;5031228;28;20396;-29
2021/12/02 03:22:00;;;;;;;3.80;1.02;;;;;;;15.17;64.46;95645.28;5031516;28;20040;-29
2021/12/02 03:24:26;;;;;;;3.38;0.93;;;;;;;15.06;64.62;95637.69;5017478;28;20431;-29
2021/12/02 03:26:52;;;;;;;6.25;0.82;;;;;;;15.01;64.76;95641.06;5011682;28;20030;-29
2021/12/02 03:29:17;;;;;;;2.55;0.80;;;;;;;15.09;64.62;95634.72;5011630;28;20042;-29
2021/12/02 03:31:43;;;;;;;3.35;0.73;;;;;;;15.10;64.43;95638.22;5011381;28;20022;-29
2021/12/02 03:34:10;;;;;;;3.40;0.88;;;;;;;15.06;64.14;95632.97;5011678;28;20518;-29
2021/12/02 03:36:36;;;;;;;3.15;0.73;;;;;;;15.21;63.53;95632.16;5011923;28;20033;-29
2021/12/02 03:39:09;;;;;;;3.00;0.90;;;;;;;15.24;63.75;95629.25;5011630;28;20029;-29
2021/12/02 03:41:35;;;;;;;3.45;1.13;;;;;;;15.17;64.58;95634.34;5011539;28;20028;-29
2021/12/02 03:44:01;;;;;;;0.95;0.60;;;;;;;15.10;64.36;95625.31;5011336;28;20049;-29
2021/12/02 03:46:27;;;;;;;2.35;0.90;;;;;;;15.08;64.62;95621.59;5011559;28;20464;-29
2021/12/02 03:48:54;;;;;;;2.13;0.60;;;;;;;15.04;64.34;95621.03;5011616;28;20034;-29
2021/12/02 03:51:20;;;;;;;2.90;0.60;;;;;;;15.16;63.98;95617.22;5011451;28;20029;-29
2021/12/02 03:53:46;;;;;;;2.10;0.65;;;;;;;15.14;64.58;95613.44;5020439;28;20030;-29
2021/12/02 03:56:12;;;;;;;2.50;0.50;;;;;;;15.01;65.22;95608.31;5033329;28;20434;-29
2021/12/02 03:58:40;;;;;;;4.10;0.88;;;;;;;15.08;64.18;95602.47;5034446;28;20090;-29
2021/12/02 04:01:07;;;;;;;2.38;0.65;;;;;;;15.04;64.41;95599.16;5037152;28;20033;-29
2021/12/02 04:03:33;;;;;;;2.88;0.73;;;;;;;15.01;64.42;95589.94;5037432;28;20078;-29
2021/12/02 04:05:59;;;;;;;3.92;0.63;;;;;;;15.13;64.09;95590.84;5036924;28;20483;-29
2021/12/02 04:16:26;;;;;;;2.97;0.55;;;;;;;15.05;64.17;95578.84;5037114;28;20059;-29
2021/12/02 04:18:52;;;;;;;2.80;0.75;;;;;;;15.17;63.63;95580.47;5036961;28;20037;-29
2021/12/02 04:21:17;;;;;;;2.78;0.60;;;;;;;15.11;63.88;95566.00;5036773;28;20032;-29
2021/12/02 04:23:43;;;;;;;2.53;0.90;;;;;;;15.16;63.61;95562.59;5036854;28;20506;-29
2021/12/02 04:26:08;;;;;;;3.13;0.70;;;;;;;15.08;64.02;95550.59;5036841;28;20026;-29
2021/12/02 04:28:34;;;;;;;1.83;0.65;;;;;;;15.18;63.26;95551.19;5036515;28;20025;-29
2021/12/02 04:30:59;;;;;;;2.33;0.80;;;;;;;15.07;64.13;95544.38;5036482;28;20026;-29
2021/12/02 04:33:25;;;;;;;1.90;0.70;;;;;;;14.98;64.23;95541.00;5036702;28;20041;-29
2021/12/02 04:35:52;;;;;;;2.15;0.57;;;;;;;15.05;64.26;95546.06;5036644;28;20036;-29
2021/12/02 04:38:19;;;;;;;1.60;0.68;;;;;;;15.05;64.29;95546.81;5036471;28;20383;-29
2021/12/02 04:40:44;;;;;;;3.38;0.65;;;;;;;15.00;64.00;95552.19;5036694;28;20035;-29
2021/12/02 04:43:10;;;;;;;2.28;0.63;;;;;;;15.04;64.34;95544.56;5036451;28;20029;-28
2021/12/02 04:45:35;;;;;;;2.75;0.70;;;;;;;15.12;63.34;95545.66;5036742;28;20487;-28
2021/12/02 04:48:01;;;;;;;3.83;0.90;;;;;;;15.05;63.75;95537.88;5036347;28;20021;-28
2021/12/02 04:50:26;;;;;;;2.80;0.80;;;;;;;14.95;64.70;95533.78;5036444;28;20029;-28
2021/12/02 04:52:53;;;;;;;3.72;0.60;;;;;;;14.99;64.03;95534.31;5036071;28;20029;-28
2021/12/02 04:55:19;;;;;;;3.70;0.80;;;;;;;15.16;63.14;95529.81;5035232;28;20067;-28
2021/12/02 04:57:49;;;;;;;3.03;0.70;;;;;;;14.97;63.82;95528.56;5034131;28;20052;-28
2021/12/02 05:00:16;;;;;;;3.22;0.70;;;;;;;15.06;63.18;95531.94;5031224;28;20037;-29
2021/12/02 05:02:41;;;;;;;3.30;0.60;;;;;;;15.04;63.53;95528.19;5014681;28;20022;-29
2021/12/02 05:05:08;;;;;;;3.08;0.50;;;;;;;15.00;63.50;95533.09;5020423;28;20050;-29
2021/12/02 05:07:34;;;;;;;2.28;0.60;;;;;;;15.06;63.28;95537.41;5034120;28;20036;-29
2021/12/02 05:10:00;;;;;;;2.08;0.75;;;;;;;15.06;63.03;95528.47;5033608;28;20025;-29
2021/12/02 05:12:25;;;;;;;3.15;0.50;;;;;;;15.03;62.91;95518.47;5033659;28;20033;-29
2021/12/02 05:14:52;;;;;;;5.22;0.70;;;;;;;15.09;63.03;95520.03;5034088;28;20025;-28
2021/12/02 05:17:18;;;;;;;2.60;0.70;;;;;;;15.01;63.46;95516.22;5027891;28;20037;-28
2021/12/02 05:19:44;;;;;;;3.60;0.77;;;;;;;15.01;63.13;95504.56;5014038;28;20037;-28
2021/12/02 05:22:10;;;;;;;1.77;0.52;;;;;;;14.95;63.48;95514.66;5014107;28;20022;-28
2021/12/02 05:24:35;;;;;;;1.30;0.70;;;;;;;15.04;63.58;95519.97;5013674;28;20573;-28
2021/12/02 05:27:01;;;;;;;2.35;0.80;;;;;;;15.05;63.11;95510.56;5013866;28;20100;-28
2021/12/02 05:29:26;;;;;;;5.57;1.13;;;;;;;15.01;64.09;95508.03;5012508;28;20119;-29
2021/12/02 05:31:52;;;;;;;3.55;1.17;;;;;;;14.94;63.62;95503.00;5013907;28;20037;-29
2021/12/02 05:34:17;;;;;;;2.40;0.90;;;;;;;15.08;62.86;95498.69;5013561;28;20029;-28
2021/12/02 05:36:43;;;;;;;5.18;1.33;;;;;;;15.09;62.90;95497.44;5013771;28;20736;-28
2021/12/02 05:39:08;;;;;;;5.90;1.15;;;;;;;15.00;62.98;95497.59;5013668;28;20420;-28
2021/12/02 05:41:34;;;;;;;6.30;1.40;;;;;;;15.01;62.96;95501.81;5013677;28;20380;-29
2021/12/02 05:44:00;;;;;;;3.10;0.73;;;;;;;15.02;63.09;95497.88;5013762;28;20030;-29
2021/12/02 05:46:26;;;;;;;4.70;1.15;;;;;;;15.05;62.62;95492.22;5013420;28;20438;-29
2021/12/02 05:48:51;;;;;;;1.65;0.80;;;;;;;15.04;62.82;95484.50;5013371;28;20025;-29
2021/12/02 05:51:17;;;;;;;1.92;0.82;;;;;;;15.08;62.32;95485.03;5013417;28;20029;-29
2021/12/02 05:53:42;;;;;;;2.97;0.80;;;;;;;14.99;63.41;95485.16;5018445;28;20489;-28
2021/12/02 05:56:07;;;;;;;4.18;1.33;;;;;;;15.08;62.71;95488.50;5033341;28;20455;-28
2021/12/02 05:58:33;;;;;;;1.58;0.57;;;;;;;15.04;62.70;95484.50;5032915;28;20457;-29
2021/12/02 06:00:58;;;;;;;3.08;0.90;;;;;;;15.07;62.68;95484.28;5033181;28;20029;-29
2021/12/02 06:03:24;;;;;;;1.77;0.77;;;;;;;14.98;63.26;95484.41;5031773;28;20471;-29
2021/12/02 06:05:49;;;;;;;2.75;0.82;;;;;;;15.02;62.88;95474.03;5033116;28;20026;-29
2021/12/02 06:08:15;;;;;;;2.42;1.00;;;;;;;15.08;62.58;95474.84;5033023;28;20434;-29
2021/12/02 06:10:41;;;;;;;3.10;0.70;;;;;;;14.93;63.53;95471.47;5032695;28;20048;-29
2021/12/02 06:13:07;;;;;;;3.00;0.50;;;;;;;14.98;63.38;95470.75;5032921;28;20037;-29
2021/12/02 06:15:32;;;;;;;2.85;1.00;;;;;;;14.95;63.29;95465.53;5032804;28;20071;-29
2021/12/02 06:17:58;;;;;;;3.53;0.85;;;;;;;15.15;62.30;95453.81;5032643;28;20692;-29
2021/12/02 06:20:23;;;;;;;3.35;0.75;;;;;;;14.99;63.37;95441.47;5032261;28;20083;-29
2021/12/02 06:22:49;;;;;;;1.55;0.93;;;;;;;15.04;62.98;95451.72;5030671;28;20033;-29
2021/12/02 06:27:53;;;;;;;2.90;0.73;;;;;;;15.14;62.34;95444.88;5032459;28;20021;-29
2021/12/02 06:30:21;;;;;;;3.00;1.40;;;;;;;15.04;63.46;95435.34;5030288;28;20026;-29
2021/12/02 06:32:47;;;;;;;2.97;0.85;;;;;;;15.12;62.65;95441.13;5032480;28;20045;-29
2021/12/02 06:35:13;;;;;;;4.18;1.55;;;;;;;15.18;62.00;95437.25;5032178;28;20519;-29
2021/12/02 06:37:39;;;;;;;5.63;1.40;;;;;;;15.01;63.39;95444.47;5032362;28;20047;-29
2021/12/02 06:40:06;;;;;;;4.57;1.50;;;;;;;14.86;63.95;95433.63;5032386;28;20483;-29
2021/12/02 06:42:32;;;;;;;4.45;1.63;;;;;;;15.01;62.85;95433.56;5032093;28;20021;-29
2021/12/02 06:44:57;;;;;;;3.88;1.25;;;;;;;15.03;62.84;95442.78;5032185;28;20577;-29
2021/12/02 06:47:29;;;;;;;3.60;1.38;;;;;;;15.07;62.61;95426.19;5031870;28;20025;-29
2021/12/02 06:49:56;;;;;;;4.70;1.73;;;;;;;15.14;62.20;95431.22;5032281;28;20036;-29
2021/12/02 06:52:23;;;;;;;3.08;1.38;;;;;;;15.03;62.89;95422.91;5032252;28;20087;-29
2021/12/02 06:54:49;;;;;;;4.18;1.73;;;;;;;15.09;62.73;95426.44;5017980;28;20029;-29
2021/12/02 06:57:16;;;;;;;4.43;1.10;;;;;;;14.90;63.35;95430.69;5011933;28;20065;-29
2021/12/02 06:59:41;;;;;;;3.08;1.00;;;;;;;14.93;63.78;95432.47;5011988;28;20026;-29
2021/12/02 07:02:08;;;;;;;4.50;1.27;;;;;;;14.95;63.27;95432.75;5012171;28;20045;-29
2021/12/02 07:04:33;;;;;;;4.25;1.20;;;;;;;14.89;64.04;95451.03;5012076;28;20030;-29
2021/12/02 07:06:59;;;;;;;3.17;1.13;;;;;;;14.93;63.45;95440.69;5012100;28;20061;-29
2021/12/02 07:09:24;;;;;;;3.13;1.38;;;;;;;15.04;62.90;95454.44;5011967;28;20032;-29
2021/12/02 07:11:49;;;;;;;3.20;1.10;;;;;;;15.04;63.00;95435.34;5011653;28;20428;-29
2021/12/02 07:14:17;;;;;;;3.35;1.00;;;;;;;15.03;63.10;95442.78;5012059;28;20026;-29
2021/12/02 07:16:42;;;;;;;3.25;1.38;;;;;;;15.07;63.07;95437.88;5012041;28;20032;-29
2021/12/02 07:19:09;;;;;;;2.97;1.23;;;;;;;15.09;62.85;95442.81;5012101;28;20026;-29
2021/12/02 07:21:38;;;;;;;2.88;1.00;;;;;;;15.07;62.79;95448.03;5012071;28;20022;-29
2021/12/02 07:24:06;;;;;;;5.03;1.88;;;;;;;14.94;63.14;95450.38;5011577;28;20087;-29
2021/12/02 07:26:36;;;;;;;4.78;1.33;;;;;;;15.01;63.18;95441.75;5015611;28;20033;-29
2021/12/02 07:29:01;;;;;;;3.30;1.40;;;;;;;15.10;62.72;95444.34;5033739;28;20486;-29
2021/12/02 07:31:29;;;;;;;3.08;1.00;;;;;;;14.96;63.60;95445.19;5033240;28;20029;-29
2021/12/02 07:33:57;;;;;;;2.58;0.88;;;;;;;15.00;63.42;95449.19;5033274;28;20060;-29
2021/12/02 07:36:23;;;;;;;3.13;1.30;;;;;;;14.97;63.63;95461.06;5033442;28;20021;-29
2021/12/02 07:38:49;;;;;;;3.95;1.30;;;;;;;14.95;63.46;95460.81;5033439;28;20030;-29
2021/12/02 07:41:15;;;;;;;2.10;0.90;;;;;;;15.01;63.08;95458.88;5033733;28;20022;-29
2021/12/02 07:43:41;;;;;;;5.03;1.48;;;;;;;15.02;63.03;95454.19;5033549;28;20036;-29
2021/12/02 07:46:08;;;;;;;3.38;1.30;;;;;;;14.98;63.70;95456.34;5033377;28;20025;-29
2021/12/02 07:48:35;;;;;;;4.07;1.33;;;;;;;15.04;63.17;95447.00;5033357;28;20045;-29
2021/12/02 07:51:06;;;;;;;2.30;1.30;;;;;;;15.02;63.42;95443.25;5033217;28;20083;-29
2021/12/02 07:53:33;;;;;;;3.83;1.30;;;;;;;15.05;63.09;95443.06;5033278;28;20052;-29
2021/12/02 07:56:06;;;;;;;3.33;1.27;;;;;;;15.01;63.09;95447.22;5033154;28;20368;-29
2021/12/02 07:58:32;;;;;;;4.15;1.48;;;;;;;15.08;63.14;95435.88;5031990;28;20052;-29
2021/12/02 08:00:59;;;;;;;4.05;1.23;;;;;;;15.15;63.04;95434.72;5033325;28;20025;-29
2021/12/02 08:03:26;;;;;;;3.72;1.38;;;;;;;15.16;62.55;95436.97;5033574;28;20030;-29
2021/12/02 08:05:52;;;;;;;4.82;1.17;;;;;;;15.17;62.72;95434.97;5033275;28;20029;-29
2021/12/02 08:08:17;;;;;;;4.50;1.13;;;;;;;15.11;62.53;95440.38;5033132;28;20037;-29
2021/12/02 08:10:44;;;;;;;2.97;1.10;;;;;;;15.12;63.16;95435.66;5033001;28;20026;-29
2021/12/02 08:13:10;;;;;;;3.72;1.33;;;;;;;15.11;62.99;95434.91;5033202;28;20167;-29
2021/12/02 08:15:35;;;;;;;5.05;1.20;;;;;;;15.16;62.75;95436.97;5033266;28;20053;-29
2021/12/02 08:18:01;;;;;;;3.63;1.35;;;;;;;15.13;62.82;95442.63;5032924;28;20018;-29
2021/12/02 08:20:29;;;;;;;3.83;1.25;;;;;;;15.01;63.62;95439.78;5033056;28;20021;-29
2021/12/02 08:22:54;;;;;;;4.18;1.30;;;;;;;15.15;63.04;95434.72;5032890;28;20387;-29
2021/12/02 08:25:21;;;;;;;3.92;1.02;;;;;;;15.00;63.80;95440.25;5033127;28;20036;-29
2021/12/02 08:27:47;;;;;;;2.13;0.95;;;;;;;15.10;62.82;95441.59;5032841;28;20021;-29
2021/12/02 08:30:15;;;;;;;3.22;1.00;;;;;;;15.08;63.12;95441.34;5033176;28;20064;-29
2021/12/02 08:32:43;;;;;;;3.55;1.00;;;;;;;15.07;62.69;95434.38;5032879;28;20026;-29
2021/12/02 08:35:12;;;;;;;4.32;1.02;;;;;;;15.08;62.92;95431.16;5032770;28;20029;-28
2021/12/02 08:37:42;;;;;;;4.47;1.45;;;;;;;15.07;63.10;95418.75;5032943;28;20465;-29
2021/12/02 08:40:10;;;;;;;3.17;1.00;;;;;;;14.99;63.85;95414.16;5034674;28;20037;-28
2021/12/02 08:42:35;;;;;;;3.35;1.00;;;;;;;15.00;63.27;95404.75;5031272;28;20026;-28
2021/12/02 08:45:01;;;;;;;3.88;1.13;;;;;;;15.03;63.30;95420.19;5034511;28;20032;-28
2021/12/02 08:47:28;;;;;;;4.82;1.67;;;;;;;15.09;63.28;95421.72;5036408;28;20033;-28
2021/12/02 08:49:55;;;;;;;2.20;1.45;;;;;;;15.08;62.97;95403.84;5036150;28;20025;-28
2021/12/02 08:52:23;;;;;;;13.50;7.68;;;;;;;13.99;67.46;95413.56;5036328;28;20498;-28
2021/12/02 08:54:50;;;;;;;14.90;7.60;;;;;;;14.42;66.18;95406.53;5036311;28;20109;-29
2021/12/02 08:57:21;;;;;;;14.20;7.25;;;;;;;14.74;64.48;95402.72;5036367;28;20128;-29
2021/12/02 08:59:48;;;;;;;12.55;6.43;;;;;;;14.91;63.93;95402.19;5036342;28;20495;-29
2021/12/02 09:02:14;;;;;;;13.13;6.72;;;;;;;15.06;62.96;95400.13;5036139;28;20104;-29
2021/12/02 09:04:40;;;;;;;12.07;6.47;;;;;;;15.06;63.07;95405.56;5036182;28;20112;-29
2021/12/02 09:07:06;;;;;;;11.40;5.70;;;;;;;15.15;62.68;95412.88;5036068;28;20028;-29
2021/12/02 09:09:31;;;;;;;16.83;6.20;;;;;;;15.13;62.62;95407.88;5035989;28;20030;-29
2021/12/02 09:11:57;;;;;;;9.70;5.32;;;;;;;15.03;63.21;95414.72;5035914;28;20026;-29
2021/12/02 09:14:23;;;;;;;9.30;5.10;;;;;;;15.09;62.67;95402.63;5035995;28;20025;-29
2021/12/02 09:16:51;;;;;;;9.93;4.85;;;;;;;15.03;63.11;95401.06;5035977;28;20029;-30
2021/12/02 09:19:20;;;;;;;10.68;4.50;;;;;;;15.02;63.01;95399.56;5035919;28;20029;-29
2021/12/02 09:21:45;;;;;;;8.70;4.13;;;;;;;14.98;63.00;95399.03;5035976;28;20108;-29
2021/12/02 09:24:12;;;;;;;6.57;3.90;;;;;;;15.00;62.93;95377.44;5035743;28;20045;-30
2021/12/02 09:26:38;;;;;;;9.60;4.15;;;;;;;15.08;62.22;95379.28;5021558;28;20025;-29
2021/12/02 09:29:03;;;;;;;8.98;3.88;;;;;;;15.04;62.73;95383.47;5012613;28;20036;-29
2021/12/02 09:31:29;;;;;;;7.32;3.38;;;;;;;15.01;62.71;95379.69;5016072;28;20022;-29
2021/12/02 09:33:54;;;;;;;7.15;3.10;;;;;;;15.03;62.58;95363.59;5015823;28;20451;-29
2021/12/02 09:36:21;;;;;;;7.50;3.97;;;;;;;15.03;62.58;95371.03;5015714;28;20073;-29
2021/12/02 09:38:47;;;;;;;6.35;2.60;;;;;;;15.15;62.03;95361.72;5015680;28;20038;-29
2021/12/02 09:41:13;;;;;;;7.32;3.30;;;;;;;15.25;61.71;95367.78;5015670;28;20041;-29
2021/12/02 09:43:39;;;;;;;5.20;2.45;;;;;;;14.96;62.95;95388.56;5015870;28;20021;-29
2021/12/02 09:46:04;;;;;;;5.40;2.70;;;;;;;14.88;63.34;95384.78;5015715;28;20026;-29
2021/12/02 09:48:31;;;;;;;3.83;2.47;;;;;;;14.99;62.82;95367.75;5015749;28;20029;-29
2021/12/02 09:51:48;;;;;;;6.32;2.05;;;;;;;15.01;62.49;95362.56;5015520;28;20590;-29
2021/12/02 09:56:34;;;;;;;9.65;2.25;;;;;;;14.95;62.94;95345.41;5015488;28;20029;-29
2021/12/02 09:59:08;;;;;;;7.00;3.08;;;;;;;14.95;62.99;95348.13;5015242;28;20046;-29
2021/12/02 10:01:50;;;;;;;8.90;2.20;;;;;;;15.01;62.80;95343.47;5015422;28;20021;-29
2021/12/02 10:04:16;;;;;;;10.25;2.10;;;;;;;15.05;62.50;95333.84;5015297;28;20141;-29
2021/12/02 10:06:42;;;;;;;8.98;2.03;;;;;;;15.04;62.43;95329.59;5015492;28;20080;-29
2021/12/02 10:09:37;;;;;;;3.67;1.70;;;;;;;15.09;62.11;95317.97;5015059;28;20026;-29
2021/12/02 10:12:11;;;;;;;6.43;2.20;;;;;;;15.04;62.42;95317.94;5015032;28;20050;-29
2021/12/02 10:14:39;;;;;;;7.88;2.05;;;;;;;15.08;62.08;95313.72;5014968;28;20476;-29
2021/12/02 10:17:27;;;;;;;5.70;1.65;;;;;;;15.10;62.05;95307.78;5015460;28;20439;-29
2021/12/02 10:25:50;;;;;;;4.85;1.33;;;;;;;15.14;61.88;95272.84;5034320;28;20108;-29
2021/12/02 10:28:18;;;;;;;5.45;1.80;;;;;;;15.07;62.19;95256.91;5034582;28;20030;-29
2021/12/02 10:30:50;;;;;;;4.70;1.60;;;;;;;14.95;62.43;95260.75;5034596;28;20025;-29
2021/12/02 10:33:29;;;;;;;3.75;1.92;;;;;;;15.03;62.25;95242.72;5034530;28;20071;-29
2021/12/02 10:35:54;;;;;;;3.25;1.38;;;;;;;15.01;62.39;95256.09;5034459;28;20091;-29
2021/12/02 10:38:40;;;;;;;6.50;2.10;;;;;;;14.99;62.56;95233.97;5034407;28;20025;-29
2021/12/02 10:41:17;;;;;;;2.92;1.30;;;;;;;15.05;62.34;95234.78;5034465;28;20024;-29
2021/12/02 10:44:19;;;;;;;4.07;1.30;;;;;;;14.99;62.38;95220.31;5034572;28;20028;-29
2021/12/02 10:47:00;;;;;;;2.58;1.35;;;;;;;15.09;61.94;95208.75;5034175;28;20021;-29
2021/12/02 10:49:26;;;;;;;3.30;1.50;;;;;;;14.97;62.62;95198.22;5033740;28;20064;-29
2021/12/02 10:51:55;;;;;;;2.33;1.02;;;;;;;15.01;62.61;95196.03;5033582;28;20029;-29
2021/12/02 10:54:27;;;;;;;5.80;1.48;;;;;;;14.91;62.94;95191.97;5034005;28;20029;-29
2021/12/02 10:56:55;;;;;;;4.32;1.73;;;;;;;15.01;62.59;95176.91;5034245;28;20082;-29
2021/12/02 10:59:29;;;;;;;7.97;2.03;;;;;;;14.78;63.46;95176.00;5033874;28;20540;-29
2021/12/02 11:02:07;;;;;;;5.43;1.38;;;;;;;14.93;63.13;95178.59;5032188;28;20029;-29
2021/12/02 11:04:40;;;;;;;4.07;1.25;;;;;;;14.89;63.05;95172.59;5022293;28;20029;-29
2021/12/02 11:07:11;;;;;;;4.93;1.35;;;;;;;14.66;64.10;95164.25;5031532;28;20057;-29
2021/12/02 11:09:39;;;;;;;6.10;1.33;;;;;;;14.68;64.01;95148.13;5031731;28;20061;-29
2021/12/02 11:12:08;;;;;;;6.03;1.40;;;;;;;14.77;63.69;95154.63;5031860;28;20029;-29
2021/12/02 11:14:34;;;;;;;4.68;1.30;;;;;;;14.91;62.82;95161.94;5031450;28;20052;-29
2021/12/02 11:17:07;;;;;;;6.18;1.55;;;;;;;14.84;63.32;95208.78;5031871;28;20119;-29
2021/12/02 11:19:34;;;;;;;6.70;1.33;;;;;;;14.79;63.62;95141.25;5031713;28;20647;-29
2021/12/02 11:22:07;;;;;;;6.30;1.52;;;;;;;14.89;62.89;95150.75;5027131;28;20044;-29
2021/12/02 11:24:34;;;;;;;3.50;1.45;;;;;;;14.88;62.84;95138.34;5012100;28;20031;-29
2021/12/02 11:27:13;;;;;;;4.50;1.45;;;;;;;14.74;63.67;95137.25;5011849;28;20049;-29
2021/12/02 11:29:51;;;;;;;3.22;1.60;;;;;;;14.85;63.08;95123.69;5012065;28;20172;-29
2021/12/02 11:32:31;;;;;;;6.13;1.48;;;;;;;14.98;62.46;95104.91;5011938;28;20515;-29
2021/12/02 11:34:59;;;;;;;4.47;1.45;;;;;;;15.03;62.30;95122.56;5011978;28;20510;-29
2021/12/02 11:37:26;;;;;;;5.25;1.60;;;;;;;14.92;62.79;95114.31;5011586;28;20037;-29
2021/12/02 11:39:55;;;;;;;4.05;1.70;;;;;;;14.95;62.55;95099.69;5011897;28;20033;-29
2021/12/02 11:42:21;;;;;;;5.43;2.30;;;;;;;14.93;62.86;95104.91;5011586;28;20097;-29
2021/12/02 11:44:47;;;;;;;6.45;1.98;;;;;;;14.94;62.74;95087.28;5011779;28;20513;-29
2021/12/02 11:47:13;;;;;;;7.18;1.73;;;;;;;14.97;62.77;95081.56;5011892;28;20109;-29
2021/12/02 11:49:40;;;;;;;4.80;1.67;;;;;;;15.02;62.65;95074.66;5011518;28;20134;-29
2021/12/02 11:52:05;;;;;;;5.15;1.90;;;;;;;14.99;63.06;95059.25;5011701;28;20430;-29
2021/12/02 11:54:32;;;;;;;4.78;1.77;;;;;;;14.93;63.25;95072.88;5010392;28;20030;-29
2021/12/02 11:56:58;;;;;;;8.68;1.90;;;;;;;14.96;63.26;95065.72;5018384;28;20392;-29
2021/12/02 11:59:24;;;;;;;2.58;1.33;;;;;;;14.88;63.76;95064.66;5031062;28;20597;-29
2021/12/02 12:01:57;;;;;;;5.97;2.10;;;;;;;14.77;64.29;95050.94;5031489;28;20033;-29
2021/12/02 12:04:24;;;;;;;6.13;2.13;;;;;;;14.89;63.92;95060.69;5033063;28;20421;-29
2021/12/02 12:06:54;;;;;;;6.88;2.40;;;;;;;14.58;65.21;95045.88;5031210;28;20103;-29
2021/12/02 12:09:25;;;;;;;6.35;2.42;;;;;;;14.68;64.86;95041.72;5032311;28;20021;-30